CFG2AC EDDF-LPMA
Flight info
| Callsign | CFG2AC |
|---|---|
| Flight time | N/A |
| Altitude | 31000 |
| Route | ANEKI3D ANEKI Y163 HERBI Y164 MOPAN DCT LUTIX DCT BENOT DCT NEMOS DCT NINTU/N0454F330 DCT MEBAK DCT REPSI DCT LERGA DCT MINSO DCT NARAK DCT AGN DCT LATEK DCT PPN DCT MIRPO DCT DGO DCT NEA DCT ARDID DCT GANSU DCT NARTA/N0455F350 DCT RAKUN |
| Aircraft | A321/M-SDE3FGHIRWY/LB1 |
Departure
| Time | 2026-04-17 10:00 |
|---|---|
| Airport | Frankfurt Main Airport (EDDF) |
Arrival
| Time | N/A |
|---|---|
| Airport | Cristiano Ronaldo International Airport (LPMA) |
| Time | Latitude | Longitude | Altitude | Speed | Heading |
|---|---|---|---|---|---|
| 2026-04-17 09:26 | 50.04699 | 8.57089 | 346 ft | 0 kts | 115° |
| 2026-04-17 09:46 | 50.04711 | 8.57058 | 346 ft | 4 kts | 136° |
| 2026-04-17 09:47 | 50.04733 | 8.57035 | 345 ft | 4 kts | 161° |
| 2026-04-17 09:47 | 50.04759 | 8.57027 | 345 ft | 4 kts | 180° |
| 2026-04-17 09:47 | 50.04785 | 8.57031 | 345 ft | 4 kts | 194° |
| 2026-04-17 09:47 | 50.04805 | 8.57041 | 347 ft | 0 kts | 204° |
| 2026-04-17 09:50 | 50.04794 | 8.57033 | 348 ft | 3 kts | 203° |
| 2026-04-17 09:50 | 50.04758 | 8.57009 | 355 ft | 8 kts | 203° |
| 2026-04-17 09:51 | 50.04702 | 8.56971 | 345 ft | 9 kts | 204° |
| 2026-04-17 09:51 | 50.04647 | 8.56932 | 354 ft | 9 kts | 204° |
| 2026-04-17 09:51 | 50.04591 | 8.56905 | 349 ft | 8 kts | 193° |
| 2026-04-17 09:51 | 50.04537 | 8.56886 | 345 ft | 8 kts | 193° |
| 2026-04-17 09:52 | 50.04473 | 8.56857 | 354 ft | 11 kts | 205° |
| 2026-04-17 09:52 | 50.04428 | 8.56740 | 352 ft | 15 kts | 253° |
| 2026-04-17 09:52 | 50.04393 | 8.56583 | 350 ft | 16 kts | 250° |
| 2026-04-17 09:52 | 50.04354 | 8.56419 | 354 ft | 16 kts | 249° |
| 2026-04-17 09:53 | 50.04317 | 8.56268 | 348 ft | 14 kts | 250° |
| 2026-04-17 09:53 | 50.04284 | 8.56129 | 345 ft | 13 kts | 250° |
| 2026-04-17 09:53 | 50.04255 | 8.56004 | 349 ft | 12 kts | 250° |
| 2026-04-17 09:53 | 50.04223 | 8.55870 | 355 ft | 15 kts | 249° |
| 2026-04-17 09:54 | 50.04180 | 8.55692 | 349 ft | 21 kts | 250° |
| 2026-04-17 09:54 | 50.04125 | 8.55464 | 353 ft | 22 kts | 249° |
| 2026-04-17 09:54 | 50.04072 | 8.55247 | 349 ft | 21 kts | 250° |
| 2026-04-17 09:54 | 50.04026 | 8.55046 | 348 ft | 19 kts | 250° |
| 2026-04-17 09:55 | 50.03982 | 8.54863 | 348 ft | 17 kts | 249° |
| 2026-04-17 09:55 | 50.03941 | 8.54696 | 350 ft | 17 kts | 249° |
| 2026-04-17 09:55 | 50.03891 | 8.54485 | 351 ft | 23 kts | 250° |
| 2026-04-17 09:55 | 50.03827 | 8.54299 | 352 ft | 18 kts | 235° |
| 2026-04-17 09:56 | 50.03777 | 8.54133 | 352 ft | 16 kts | 249° |
| 2026-04-17 09:56 | 50.03741 | 8.53976 | 351 ft | 15 kts | 250° |
| 2026-04-17 09:56 | 50.03708 | 8.53835 | 352 ft | 14 kts | 250° |
| 2026-04-17 09:56 | 50.03675 | 8.53697 | 349 ft | 14 kts | 249° |
| 2026-04-17 09:57 | 50.03629 | 8.53519 | 351 ft | 21 kts | 248° |
| 2026-04-17 09:57 | 50.03570 | 8.53277 | 352 ft | 25 kts | 250° |
| 2026-04-17 09:57 | 50.03512 | 8.53035 | 351 ft | 23 kts | 249° |
| 2026-04-17 09:57 | 50.03457 | 8.52818 | 354 ft | 17 kts | 247° |
| 2026-04-17 09:58 | 50.03417 | 8.52669 | 352 ft | 13 kts | 247° |
| 2026-04-17 09:58 | 50.03383 | 8.52601 | 351 ft | 5 kts | 204° |
| 2026-04-17 09:58 | 50.03352 | 8.52594 | 348 ft | 4 kts | 182° |
| 2026-04-17 09:58 | 50.03287 | 8.52596 | 353 ft | 26 kts | 179° |
| 2026-04-17 09:59 | 50.02843 | 8.52604 | 346 ft | 98 kts | 179° |
| 2026-04-17 09:59 | 50.01966 | 8.52610 | 353 ft | 152 kts | 179° |
| 2026-04-17 09:59 | 50.00761 | 8.52623 | 364 ft | 192 kts | 179° |
| 2026-04-17 09:59 | 49.99434 | 8.52646 | 951 ft | 190 kts | 178° |
| 2026-04-17 10:00 | 49.98113 | 8.52731 | 1619 ft | 191 kts | 176° |
| 2026-04-17 10:00 | 49.96799 | 8.52875 | 2056 ft | 190 kts | 176° |
| 2026-04-17 10:00 | 49.95419 | 8.53002 | 2145 ft | 209 kts | 177° |
| 2026-04-17 10:00 | 49.93914 | 8.53104 | 2337 ft | 224 kts | 178° |
| 2026-04-17 10:01 | 49.92345 | 8.53206 | 2807 ft | 227 kts | 178° |
| 2026-04-17 10:01 | 49.90767 | 8.53317 | 3364 ft | 227 kts | 178° |
| 2026-04-17 10:01 | 49.89188 | 8.53436 | 3868 ft | 228 kts | 178° |
| 2026-04-17 10:01 | 49.87576 | 8.53581 | 4236 ft | 239 kts | 176° |
| 2026-04-17 10:02 | 49.85893 | 8.53722 | 4778 ft | 243 kts | 178° |
| 2026-04-17 10:02 | 49.84199 | 8.53834 | 5419 ft | 244 kts | 178° |
| 2026-04-17 10:02 | 49.82525 | 8.53943 | 6050 ft | 244 kts | 178° |
| 2026-04-17 10:02 | 49.80835 | 8.54041 | 6727 ft | 242 kts | 178° |
| 2026-04-17 10:03 | 49.79138 | 8.54137 | 7258 ft | 247 kts | 178° |
| 2026-04-17 10:03 | 49.77412 | 8.54158 | 7768 ft | 251 kts | 185° |
| 2026-04-17 10:03 | 49.75609 | 8.53884 | 7977 ft | 270 kts | 186° |
| 2026-04-17 10:03 | 49.73708 | 8.53598 | 8408 ft | 278 kts | 186° |
| 2026-04-17 10:04 | 49.71773 | 8.53320 | 8952 ft | 282 kts | 186° |
| 2026-04-17 10:04 | 49.69806 | 8.53048 | 9518 ft | 286 kts | 186° |
| 2026-04-17 10:04 | 49.67809 | 8.52779 | 10066 ft | 290 kts | 186° |
| 2026-04-17 10:04 | 49.65802 | 8.52512 | 10425 ft | 300 kts | 186° |
| 2026-04-17 10:05 | 49.63657 | 8.52225 | 10551 ft | 319 kts | 186° |
| 2026-04-17 10:05 | 49.61383 | 8.51923 | 10679 ft | 336 kts | 185° |
| 2026-04-17 10:05 | 49.58993 | 8.51612 | 10803 ft | 353 kts | 185° |
| 2026-04-17 10:05 | 49.56497 | 8.51285 | 11047 ft | 364 kts | 186° |
| 2026-04-17 10:06 | 49.53955 | 8.50948 | 11511 ft | 369 kts | 186° |
| 2026-04-17 10:06 | 49.52261 | 8.50724 | 11847 ft | 371 kts | 186° |
| 2026-04-17 10:06 | 49.49673 | 8.50383 | 12364 ft | 374 kts | 186° |
| 2026-04-17 10:06 | 49.47066 | 8.50044 | 12878 ft | 377 kts | 186° |
| 2026-04-17 10:07 | 49.44436 | 8.49704 | 13401 ft | 381 kts | 186° |
| 2026-04-17 10:07 | 49.41784 | 8.49360 | 13905 ft | 384 kts | 186° |
| 2026-04-17 10:07 | 49.39114 | 8.49014 | 14367 ft | 387 kts | 186° |
| 2026-04-17 10:07 | 49.36421 | 8.48663 | 14817 ft | 389 kts | 186° |
| 2026-04-17 10:08 | 49.33710 | 8.48309 | 15257 ft | 392 kts | 186° |
| 2026-04-17 10:08 | 49.30983 | 8.47953 | 15698 ft | 395 kts | 186° |
| 2026-04-17 10:08 | 49.28235 | 8.47597 | 16132 ft | 397 kts | 186° |
| 2026-04-17 10:08 | 49.25473 | 8.47240 | 16559 ft | 400 kts | 186° |
| 2026-04-17 10:09 | 49.22693 | 8.46875 | 16984 ft | 402 kts | 186° |
| 2026-04-17 10:09 | 49.19891 | 8.46506 | 17398 ft | 405 kts | 186° |
| 2026-04-17 10:09 | 49.17079 | 8.46138 | 17809 ft | 407 kts | 186° |